Cohasset Beach, Washington
Current Conditions -  °F | °C
As of 11:53 PM on Sunday 23 Nov 2014 (Local Time) from KHQM Reporting Station
Haze Haze  
Wind Chill: 39°   Ceiling: Unl
Heat Index: 43°   Visibility: 5mi
Dew Point: 42°   Wind: 6mph
Humidity: 97%   Direction: 50°NE
Pressure: 30.35"   Gusts: NA
Location:  46.8679°N, 124.101°W
Report Text: KHQM 240753Z AUTO 05005KT 5SM BR CLR 06/06 A3035 RMK AO2 SLP279 T00610056 401280056
Loading
Personal Weather Stations






























Interactive Weather Map New forecast layout! Learn more

10-Day Weather Forecast

Advertisements
Track Severe Weather on mobile